Terminal Aerodrome Forecast
Issued by NWS Louisville, KY

Home | Current Version | Previous Version | Text Only | Print | Product List | Glossary On
Versions: 1 2 3 4 5 6 7 8 9 10 11 12 13 14 15
000
FTUS43 KLMK 271100
TAFLEX
TAF
KLEX 271121Z 2712/2812 20007KT P6SM BKN011
     FM271400 21010KT P6SM SCT015 SCT250
     FM272100 22011G18KT P6SM VCTS BKN050CB
     FM280200 21005KT P6SM VCSH BKN100
     FM280900 00000KT 4SM BR FEW250=

USA.gov is the U.S. government's official web portal to all federal, state and local government web resources and services.